sensor_id;sensor_type;location;lat;lon;timestamp;P1;durP1;ratioP1;P2;durP2;ratioP2
31760;SDS011;18335;51.486;7.562;2023-11-19T00:00:55;3.88;;;0.80;;
31760;SDS011;18335;51.486;7.562;2023-11-19T00:03:22;2.45;;;0.65;;
31760;SDS011;18335;51.486;7.562;2023-11-19T00:05:49;2.15;;;0.70;;
31760;SDS011;18335;51.486;7.562;2023-11-19T00:08:17;0.98;;;0.55;;
31760;SDS011;18335;51.486;7.562;2023-11-19T00:10:44;2.13;;;0.63;;
31760;SDS011;18335;51.486;7.562;2023-11-19T00:13:11;1.75;;;0.82;;
31760;SDS011;18335;51.486;7.562;2023-11-19T00:15:38;1.40;;;0.60;;
31760;SDS011;18335;51.486;7.562;2023-11-19T00:18:05;2.85;;;0.73;;
31760;SDS011;18335;51.486;7.562;2023-11-19T00:20:32;3.58;;;0.60;;
31760;SDS011;18335;51.486;7.562;2023-11-19T00:22:58;4.28;;;1.20;;
31760;SDS011;18335;51.486;7.562;2023-11-19T00:25:29;1.20;;;0.52;;
31760;SDS011;18335;51.486;7.562;2023-11-19T00:27:56;1.88;;;0.73;;
31760;SDS011;18335;51.486;7.562;2023-11-19T00:30:23;1.98;;;0.60;;
31760;SDS011;18335;51.486;7.562;2023-11-19T00:32:49;1.30;;;0.52;;
31760;SDS011;18335;51.486;7.562;2023-11-19T00:35:16;1.73;;;0.82;;
31760;SDS011;18335;51.486;7.562;2023-11-19T00:37:43;1.88;;;0.80;;
31760;SDS011;18335;51.486;7.562;2023-11-19T00:40:11;1.17;;;0.70;;
31760;SDS011;18335;51.486;7.562;2023-11-19T00:42:39;2.83;;;2.08;;
31760;SDS011;18335;51.486;7.562;2023-11-19T00:45:06;4.55;;;0.68;;
31760;SDS011;18335;51.486;7.562;2023-11-19T00:47:35;1.38;;;0.90;;
31760;SDS011;18335;51.486;7.562;2023-11-19T00:50:02;1.33;;;0.88;;
31760;SDS011;18335;51.486;7.562;2023-11-19T00:52:30;2.20;;;0.65;;
31760;SDS011;18335;51.486;7.562;2023-11-19T00:54:56;2.20;;;0.63;;
31760;SDS011;18335;51.486;7.562;2023-11-19T00:57:23;1.85;;;0.73;;
31760;SDS011;18335;51.486;7.562;2023-11-19T00:59:53;1.90;;;0.63;;
31760;SDS011;18335;51.486;7.562;2023-11-19T01:02:20;1.70;;;0.90;;
31760;SDS011;18335;51.486;7.562;2023-11-19T01:04:46;2.95;;;0.98;;
31760;SDS011;18335;51.486;7.562;2023-11-19T01:07:13;1.15;;;0.65;;
31760;SDS011;18335;51.486;7.562;2023-11-19T01:09:41;1.98;;;0.90;;
31760;SDS011;18335;51.486;7.562;2023-11-19T01:12:08;3.03;;;1.45;;
31760;SDS011;18335;51.486;7.562;2023-11-19T01:14:35;6.47;;;1.30;;
31760;SDS011;18335;51.486;7.562;2023-11-19T01:17:04;2.00;;;1.10;;
31760;SDS011;18335;51.486;7.562;2023-11-19T01:19:31;2.20;;;0.90;;
31760;SDS011;18335;51.486;7.562;2023-11-19T01:21:57;2.05;;;1.00;;
31760;SDS011;18335;51.486;7.562;2023-11-19T01:24:24;2.25;;;1.17;;
31760;SDS011;18335;51.486;7.562;2023-11-19T01:26:53;3.15;;;1.30;;
31760;SDS011;18335;51.486;7.562;2023-11-19T01:29:20;3.05;;;1.30;;
31760;SDS011;18335;51.486;7.562;2023-11-19T01:31:47;2.53;;;0.85;;
31760;SDS011;18335;51.486;7.562;2023-11-19T01:34:15;4.70;;;1.33;;
31760;SDS011;18335;51.486;7.562;2023-11-19T01:36:42;1.50;;;0.90;;
31760;SDS011;18335;51.486;7.562;2023-11-19T01:39:11;3.53;;;1.45;;
31760;SDS011;18335;51.486;7.562;2023-11-19T01:41:41;2.70;;;1.02;;
31760;SDS011;18335;51.486;7.562;2023-11-19T01:44:08;3.85;;;1.00;;
31760;SDS011;18335;51.486;7.562;2023-11-19T01:46:37;2.28;;;1.40;;
31760;SDS011;18335;51.486;7.562;2023-11-19T01:49:04;1.52;;;0.95;;
31760;SDS011;18335;51.486;7.562;2023-11-19T01:51:33;3.47;;;1.10;;
31760;SDS011;18335;51.486;7.562;2023-11-19T01:54:00;1.85;;;1.00;;
31760;SDS011;18335;51.486;7.562;2023-11-19T01:56:28;1.23;;;0.73;;
31760;SDS011;18335;51.486;7.562;2023-11-19T01:58:56;3.05;;;1.08;;
31760;SDS011;18335;51.486;7.562;2023-11-19T02:01:23;2.47;;;0.90;;
31760;SDS011;18335;51.486;7.562;2023-11-19T02:03:51;3.78;;;1.17;;
31760;SDS011;18335;51.486;7.562;2023-11-19T02:06:18;1.42;;;1.00;;
31760;SDS011;18335;51.486;7.562;2023-11-19T02:08:46;2.85;;;0.70;;
31760;SDS011;18335;51.486;7.562;2023-11-19T02:11:13;1.10;;;0.80;;
31760;SDS011;18335;51.486;7.562;2023-11-19T02:13:40;2.53;;;1.20;;
31760;SDS011;18335;51.486;7.562;2023-11-19T02:16:09;2.05;;;0.88;;
31760;SDS011;18335;51.486;7.562;2023-11-19T02:18:36;2.53;;;0.80;;
31760;SDS011;18335;51.486;7.562;2023-11-19T02:21:03;2.58;;;0.95;;
31760;SDS011;18335;51.486;7.562;2023-11-19T02:23:31;2.78;;;1.30;;
31760;SDS011;18335;51.486;7.562;2023-11-19T02:26:05;2.22;;;1.10;;
31760;SDS011;18335;51.486;7.562;2023-11-19T02:28:40;2.97;;;1.10;;
31760;SDS011;18335;51.486;7.562;2023-11-19T02:31:08;3.70;;;1.10;;
31760;SDS011;18335;51.486;7.562;2023-11-19T02:33:35;3.10;;;0.98;;
31760;SDS011;18335;51.486;7.562;2023-11-19T02:36:02;3.53;;;0.93;;
31760;SDS011;18335;51.486;7.562;2023-11-19T02:38:30;4.03;;;1.30;;
31760;SDS011;18335;51.486;7.562;2023-11-19T02:40:57;2.78;;;1.20;;
31760;SDS011;18335;51.486;7.562;2023-11-19T02:43:24;5.00;;;1.33;;
31760;SDS011;18335;51.486;7.562;2023-11-19T02:45:52;2.88;;;1.10;;
31760;SDS011;18335;51.486;7.562;2023-11-19T02:48:21;7.63;;;1.77;;
31760;SDS011;18335;51.486;7.562;2023-11-19T02:50:47;5.05;;;1.42;;
31760;SDS011;18335;51.486;7.562;2023-11-19T02:53:14;5.63;;;1.20;;
31760;SDS011;18335;51.486;7.562;2023-11-19T02:55:41;8.88;;;1.40;;
31760;SDS011;18335;51.486;7.562;2023-11-19T02:58:13;7.55;;;1.70;;
31760;SDS011;18335;51.486;7.562;2023-11-19T03:00:48;5.68;;;1.35;;
31760;SDS011;18335;51.486;7.562;2023-11-19T03:03:23;8.30;;;1.45;;
31760;SDS011;18335;51.486;7.562;2023-11-19T03:05:54;11.35;;;2.03;;
31760;SDS011;18335;51.486;7.562;2023-11-19T03:08:20;10.55;;;1.80;;
31760;SDS011;18335;51.486;7.562;2023-11-19T03:10:47;8.38;;;1.52;;
31760;SDS011;18335;51.486;7.562;2023-11-19T03:13:14;9.57;;;1.70;;
31760;SDS011;18335;51.486;7.562;2023-11-19T03:15:42;8.32;;;1.73;;
31760;SDS011;18335;51.486;7.562;2023-11-19T03:18:09;12.07;;;1.42;;
31760;SDS011;18335;51.486;7.562;2023-11-19T03:20:37;8.43;;;1.80;;
31760;SDS011;18335;51.486;7.562;2023-11-19T03:23:04;11.20;;;1.70;;
31760;SDS011;18335;51.486;7.562;2023-11-19T03:25:31;12.57;;;1.67;;
31760;SDS011;18335;51.486;7.562;2023-11-19T03:28:00;9.13;;;2.58;;
31760;SDS011;18335;51.486;7.562;2023-11-19T03:30:31;11.80;;;2.08;;
31760;SDS011;18335;51.486;7.562;2023-11-19T03:32:58;10.88;;;2.22;;
31760;SDS011;18335;51.486;7.562;2023-11-19T03:35:26;14.90;;;2.03;;
31760;SDS011;18335;51.486;7.562;2023-11-19T03:37:57;9.95;;;3.20;;
31760;SDS011;18335;51.486;7.562;2023-11-19T03:40:24;17.10;;;4.50;;
31760;SDS011;18335;51.486;7.562;2023-11-19T03:42:52;12.27;;;3.08;;
31760;SDS011;18335;51.486;7.562;2023-11-19T03:45:19;14.57;;;2.28;;
31760;SDS011;18335;51.486;7.562;2023-11-19T03:47:46;7.45;;;2.05;;
31760;SDS011;18335;51.486;7.562;2023-11-19T03:50:15;15.85;;;2.38;;
31760;SDS011;18335;51.486;7.562;2023-11-19T03:52:42;12.02;;;2.55;;
31760;SDS011;18335;51.486;7.562;2023-11-19T03:55:10;13.77;;;2.30;;
31760;SDS011;18335;51.486;7.562;2023-11-19T03:57:37;13.65;;;2.60;;
31760;SDS011;18335;51.486;7.562;2023-11-19T04:00:05;14.52;;;2.60;;
31760;SDS011;18335;51.486;7.562;2023-11-19T04:02:38;11.85;;;2.40;;
31760;SDS011;18335;51.486;7.562;2023-11-19T04:05:06;16.25;;;2.72;;
31760;SDS011;18335;51.486;7.562;2023-11-19T04:07:33;10.68;;;3.03;;
31760;SDS011;18335;51.486;7.562;2023-11-19T04:10:00;15.93;;;3.28;;
31760;SDS011;18335;51.486;7.562;2023-11-19T04:12:31;15.68;;;3.35;;
31760;SDS011;18335;51.486;7.562;2023-11-19T04:14:57;16.33;;;3.25;;
31760;SDS011;18335;51.486;7.562;2023-11-19T04:17:24;12.75;;;3.08;;
31760;SDS011;18335;51.486;7.562;2023-11-19T04:19:51;17.80;;;3.08;;
31760;SDS011;18335;51.486;7.562;2023-11-19T04:22:18;15.05;;;3.70;;
31760;SDS011;18335;51.486;7.562;2023-11-19T04:24:44;17.90;;;3.92;;
31760;SDS011;18335;51.486;7.562;2023-11-19T04:27:11;22.95;;;3.42;;
31760;SDS011;18335;51.486;7.562;2023-11-19T04:29:40;19.80;;;4.30;;
31760;SDS011;18335;51.486;7.562;2023-11-19T04:32:07;16.83;;;3.00;;
31760;SDS011;18335;51.486;7.562;2023-11-19T04:34:34;15.82;;;3.38;;
31760;SDS011;18335;51.486;7.562;2023-11-19T04:37:02;18.42;;;4.22;;
31760;SDS011;18335;51.486;7.562;2023-11-19T04:39:29;14.32;;;3.40;;
31760;SDS011;18335;51.486;7.562;2023-11-19T04:41:56;17.65;;;3.30;;
31760;SDS011;18335;51.486;7.562;2023-11-19T04:44:23;17.27;;;3.65;;
31760;SDS011;18335;51.486;7.562;2023-11-19T04:46:51;18.10;;;2.95;;
31760;SDS011;18335;51.486;7.562;2023-11-19T04:49:18;16.35;;;2.88;;
31760;SDS011;18335;51.486;7.562;2023-11-19T04:51:45;21.42;;;3.10;;
31760;SDS011;18335;51.486;7.562;2023-11-19T04:54:13;24.60;;;4.28;;
31760;SDS011;18335;51.486;7.562;2023-11-19T04:56:40;11.85;;;2.80;;
31760;SDS011;18335;51.486;7.562;2023-11-19T04:59:07;18.75;;;3.67;;
31760;SDS011;18335;51.486;7.562;2023-11-19T05:01:34;16.73;;;2.85;;
31760;SDS011;18335;51.486;7.562;2023-11-19T05:04:02;13.35;;;3.08;;
31760;SDS011;18335;51.486;7.562;2023-11-19T05:06:29;21.63;;;3.60;;
31760;SDS011;18335;51.486;7.562;2023-11-19T05:08:58;16.83;;;3.42;;
31760;SDS011;18335;51.486;7.562;2023-11-19T05:11:28;22.25;;;4.60;;
31760;SDS011;18335;51.486;7.562;2023-11-19T05:13:55;20.50;;;3.95;;
31760;SDS011;18335;51.486;7.562;2023-11-19T05:16:23;20.05;;;3.55;;
31760;SDS011;18335;51.486;7.562;2023-11-19T05:18:50;27.67;;;6.72;;
31760;SDS011;18335;51.486;7.562;2023-11-19T05:21:18;19.33;;;4.28;;
31760;SDS011;18335;51.486;7.562;2023-11-19T05:23:45;17.83;;;4.57;;
31760;SDS011;18335;51.486;7.562;2023-11-19T05:26:16;14.23;;;4.22;;
31760;SDS011;18335;51.486;7.562;2023-11-19T05:28:44;26.05;;;6.82;;
31760;SDS011;18335;51.486;7.562;2023-11-19T05:31:10;22.95;;;4.25;;
31760;SDS011;18335;51.486;7.562;2023-11-19T05:33:37;27.88;;;5.05;;
31760;SDS011;18335;51.486;7.562;2023-11-19T05:36:04;20.10;;;3.95;;
31760;SDS011;18335;51.486;7.562;2023-11-19T05:38:34;22.42;;;4.30;;
31760;SDS011;18335;51.486;7.562;2023-11-19T05:41:01;21.58;;;4.38;;
31760;SDS011;18335;51.486;7.562;2023-11-19T05:43:28;17.10;;;4.03;;
31760;SDS011;18335;51.486;7.562;2023-11-19T05:45:55;30.20;;;4.93;;
31760;SDS011;18335;51.486;7.562;2023-11-19T05:48:22;23.13;;;5.43;;
31760;SDS011;18335;51.486;7.562;2023-11-19T05:50:49;22.75;;;4.25;;
31760;SDS011;18335;51.486;7.562;2023-11-19T05:53:16;18.50;;;3.42;;
31760;SDS011;18335;51.486;7.562;2023-11-19T05:55:44;17.67;;;3.75;;
31760;SDS011;18335;51.486;7.562;2023-11-19T05:58:14;29.30;;;5.47;;
31760;SDS011;18335;51.486;7.562;2023-11-19T06:00:40;28.67;;;5.90;;
31760;SDS011;18335;51.486;7.562;2023-11-19T06:03:07;34.28;;;7.70;;
31760;SDS011;18335;51.486;7.562;2023-11-19T06:05:34;23.55;;;3.85;;
31760;SDS011;18335;51.486;7.562;2023-11-19T06:08:01;29.85;;;6.15;;
31760;SDS011;18335;51.486;7.562;2023-11-19T06:10:28;22.95;;;4.25;;
31760;SDS011;18335;51.486;7.562;2023-11-19T06:12:58;20.52;;;3.70;;
31760;SDS011;18335;51.486;7.562;2023-11-19T06:15:26;19.17;;;5.13;;
31760;SDS011;18335;51.486;7.562;2023-11-19T06:17:53;26.67;;;5.57;;
31760;SDS011;18335;51.486;7.562;2023-11-19T06:20:20;20.67;;;3.60;;
31760;SDS011;18335;51.486;7.562;2023-11-19T06:22:46;24.50;;;4.70;;
31760;SDS011;18335;51.486;7.562;2023-11-19T06:25:13;23.33;;;3.78;;
31760;SDS011;18335;51.486;7.562;2023-11-19T06:27:41;21.50;;;5.00;;
31760;SDS011;18335;51.486;7.562;2023-11-19T06:30:10;26.90;;;4.70;;
31760;SDS011;18335;51.486;7.562;2023-11-19T06:32:37;23.02;;;4.25;;
31760;SDS011;18335;51.486;7.562;2023-11-19T06:35:04;21.15;;;5.00;;
31760;SDS011;18335;51.486;7.562;2023-11-19T06:37:31;23.08;;;4.55;;
31760;SDS011;18335;51.486;7.562;2023-11-19T06:39:59;20.23;;;4.57;;
31760;SDS011;18335;51.486;7.562;2023-11-19T06:42:25;21.98;;;4.90;;
31760;SDS011;18335;51.486;7.562;2023-11-19T06:44:52;19.15;;;4.38;;
31760;SDS011;18335;51.486;7.562;2023-11-19T06:47:21;19.25;;;4.18;;
31760;SDS011;18335;51.486;7.562;2023-11-19T06:49:47;22.13;;;3.33;;
31760;SDS011;18335;51.486;7.562;2023-11-19T06:52:14;22.10;;;4.38;;
31760;SDS011;18335;51.486;7.562;2023-11-19T06:54:42;29.90;;;6.85;;
31760;SDS011;18335;51.486;7.562;2023-11-19T06:57:10;21.38;;;4.55;;
31760;SDS011;18335;51.486;7.562;2023-11-19T06:59:37;23.63;;;3.83;;
31760;SDS011;18335;51.486;7.562;2023-11-19T07:02:04;20.90;;;5.25;;
31760;SDS011;18335;51.486;7.562;2023-11-19T07:04:32;21.30;;;3.58;;
31760;SDS011;18335;51.486;7.562;2023-11-19T07:06:59;25.13;;;5.00;;
31760;SDS011;18335;51.486;7.562;2023-11-19T07:09:26;25.15;;;4.18;;
31760;SDS011;18335;51.486;7.562;2023-11-19T07:11:56;25.70;;;5.13;;
31760;SDS011;18335;51.486;7.562;2023-11-19T07:14:25;18.35;;;3.55;;
31760;SDS011;18335;51.486;7.562;2023-11-19T07:16:51;20.88;;;4.15;;
31760;SDS011;18335;51.486;7.562;2023-11-19T07:19:19;21.30;;;5.57;;
31760;SDS011;18335;51.486;7.562;2023-11-19T07:21:47;25.83;;;4.22;;
31760;SDS011;18335;51.486;7.562;2023-11-19T07:24:14;18.20;;;4.38;;
31760;SDS011;18335;51.486;7.562;2023-11-19T07:26:42;25.42;;;4.40;;
31760;SDS011;18335;51.486;7.562;2023-11-19T07:29:10;26.95;;;4.43;;
31760;SDS011;18335;51.486;7.562;2023-11-19T07:31:36;26.95;;;4.07;;
31760;SDS011;18335;51.486;7.562;2023-11-19T07:34:03;25.75;;;4.10;;
31760;SDS011;18335;51.486;7.562;2023-11-19T07:36:32;23.50;;;4.65;;
31760;SDS011;18335;51.486;7.562;2023-11-19T07:39:03;27.42;;;4.00;;
31760;SDS011;18335;51.486;7.562;2023-11-19T07:41:30;19.52;;;3.28;;
31760;SDS011;18335;51.486;7.562;2023-11-19T07:43:57;21.88;;;4.15;;
31760;SDS011;18335;51.486;7.562;2023-11-19T07:46:24;18.85;;;5.57;;
31760;SDS011;18335;51.486;7.562;2023-11-19T07:48:51;19.60;;;4.25;;
31760;SDS011;18335;51.486;7.562;2023-11-19T07:51:18;22.67;;;3.92;;
31760;SDS011;18335;51.486;7.562;2023-11-19T07:53:45;22.48;;;3.65;;
31760;SDS011;18335;51.486;7.562;2023-11-19T07:56:13;31.52;;;5.07;;
31760;SDS011;18335;51.486;7.562;2023-11-19T07:58:40;30.13;;;6.25;;
31760;SDS011;18335;51.486;7.562;2023-11-19T08:01:07;26.95;;;7.45;;
31760;SDS011;18335;51.486;7.562;2023-11-19T08:03:34;22.25;;;3.47;;
31760;SDS011;18335;51.486;7.562;2023-11-19T08:06:01;30.77;;;4.60;;
31760;SDS011;18335;51.486;7.562;2023-11-19T08:08:29;19.58;;;4.28;;
31760;SDS011;18335;51.486;7.562;2023-11-19T08:10:58;26.80;;;4.95;;
31760;SDS011;18335;51.486;7.562;2023-11-19T08:13:26;29.90;;;4.80;;
31760;SDS011;18335;51.486;7.562;2023-11-19T08:15:53;24.88;;;5.53;;
31760;SDS011;18335;51.486;7.562;2023-11-19T08:18:20;31.92;;;5.53;;
31760;SDS011;18335;51.486;7.562;2023-11-19T08:20:48;24.30;;;5.65;;
31760;SDS011;18335;51.486;7.562;2023-11-19T08:23:18;24.63;;;4.18;;
31760;SDS011;18335;51.486;7.562;2023-11-19T08:25:45;20.83;;;4.55;;
31760;SDS011;18335;51.486;7.562;2023-11-19T08:28:12;28.40;;;4.82;;
31760;SDS011;18335;51.486;7.562;2023-11-19T08:30:40;25.92;;;6.22;;
31760;SDS011;18335;51.486;7.562;2023-11-19T08:33:06;19.85;;;3.97;;
31760;SDS011;18335;51.486;7.562;2023-11-19T08:35:33;22.42;;;4.20;;
31760;SDS011;18335;51.486;7.562;2023-11-19T08:38:00;25.83;;;5.82;;
31760;SDS011;18335;51.486;7.562;2023-11-19T08:40:27;22.58;;;4.13;;
31760;SDS011;18335;51.486;7.562;2023-11-19T08:42:55;22.75;;;4.10;;
31760;SDS011;18335;51.486;7.562;2023-11-19T08:45:21;21.42;;;5.32;;
31760;SDS011;18335;51.486;7.562;2023-11-19T08:47:50;31.48;;;5.65;;
31760;SDS011;18335;51.486;7.562;2023-11-19T08:50:17;37.08;;;8.18;;
31760;SDS011;18335;51.486;7.562;2023-11-19T08:52:43;21.77;;;4.15;;
31760;SDS011;18335;51.486;7.562;2023-11-19T08:55:11;22.80;;;4.50;;
31760;SDS011;18335;51.486;7.562;2023-11-19T08:57:38;24.83;;;5.00;;
31760;SDS011;18335;51.486;7.562;2023-11-19T09:00:06;23.88;;;4.20;;
31760;SDS011;18335;51.486;7.562;2023-11-19T09:02:34;31.80;;;5.13;;
31760;SDS011;18335;51.486;7.562;2023-11-19T09:05:03;20.48;;;4.30;;
31760;SDS011;18335;51.486;7.562;2023-11-19T09:07:32;27.95;;;6.00;;
31760;SDS011;18335;51.486;7.562;2023-11-19T09:09:59;23.23;;;4.15;;
31760;SDS011;18335;51.486;7.562;2023-11-19T09:12:26;21.92;;;4.43;;
31760;SDS011;18335;51.486;7.562;2023-11-19T09:14:52;26.83;;;5.65;;
31760;SDS011;18335;51.486;7.562;2023-11-19T09:17:22;22.17;;;4.53;;
31760;SDS011;18335;51.486;7.562;2023-11-19T09:19:49;25.25;;;4.75;;
31760;SDS011;18335;51.486;7.562;2023-11-19T09:22:17;28.08;;;4.65;;
31760;SDS011;18335;51.486;7.562;2023-11-19T09:24:44;28.95;;;6.03;;
31760;SDS011;18335;51.486;7.562;2023-11-19T09:27:10;28.02;;;4.68;;
31760;SDS011;18335;51.486;7.562;2023-11-19T09:29:37;30.65;;;5.70;;
31760;SDS011;18335;51.486;7.562;2023-11-19T09:32:04;39.35;;;4.72;;
31760;SDS011;18335;51.486;7.562;2023-11-19T09:34:32;23.88;;;5.47;;
31760;SDS011;18335;51.486;7.562;2023-11-19T09:36:59;26.70;;;4.63;;
31760;SDS011;18335;51.486;7.562;2023-11-19T09:39:28;24.48;;;3.97;;
31760;SDS011;18335;51.486;7.562;2023-11-19T09:41:55;30.45;;;4.53;;
31760;SDS011;18335;51.486;7.562;2023-11-19T09:44:23;26.50;;;5.18;;
31760;SDS011;18335;51.486;7.562;2023-11-19T09:46:53;28.15;;;6.18;;
31760;SDS011;18335;51.486;7.562;2023-11-19T09:49:21;26.50;;;5.25;;
31760;SDS011;18335;51.486;7.562;2023-11-19T09:51:50;26.70;;;4.30;;
31760;SDS011;18335;51.486;7.562;2023-11-19T09:54:17;28.08;;;4.68;;
31760;SDS011;18335;51.486;7.562;2023-11-19T09:56:45;25.95;;;5.10;;
31760;SDS011;18335;51.486;7.562;2023-11-19T09:59:13;24.52;;;4.60;;
31760;SDS011;18335;51.486;7.562;2023-11-19T10:01:40;30.52;;;7.15;;
31760;SDS011;18335;51.486;7.562;2023-11-19T10:04:07;23.30;;;5.30;;
31760;SDS011;18335;51.486;7.562;2023-11-19T10:06:36;26.23;;;4.32;;
31760;SDS011;18335;51.486;7.562;2023-11-19T10:09:03;38.78;;;7.45;;
31760;SDS011;18335;51.486;7.562;2023-11-19T10:11:30;25.73;;;4.32;;
31760;SDS011;18335;51.486;7.562;2023-11-19T10:13:59;29.90;;;6.63;;
31760;SDS011;18335;51.486;7.562;2023-11-19T10:16:28;24.70;;;5.28;;
31760;SDS011;18335;51.486;7.562;2023-11-19T10:18:56;31.17;;;5.60;;
31760;SDS011;18335;51.486;7.562;2023-11-19T10:21:23;26.58;;;5.00;;
31760;SDS011;18335;51.486;7.562;2023-11-19T10:23:53;30.88;;;6.35;;
31760;SDS011;18335;51.486;7.562;2023-11-19T10:26:26;24.35;;;4.82;;
31760;SDS011;18335;51.486;7.562;2023-11-19T10:28:54;27.27;;;4.50;;
31760;SDS011;18335;51.486;7.562;2023-11-19T10:31:23;28.23;;;5.15;;
31760;SDS011;18335;51.486;7.562;2023-11-19T10:33:51;27.88;;;4.90;;
31760;SDS011;18335;51.486;7.562;2023-11-19T10:36:19;24.48;;;4.30;;
31760;SDS011;18335;51.486;7.562;2023-11-19T10:38:51;32.13;;;6.35;;
31760;SDS011;18335;51.486;7.562;2023-11-19T10:41:29;22.10;;;4.28;;
31760;SDS011;18335;51.486;7.562;2023-11-19T10:43:59;26.92;;;6.63;;
31760;SDS011;18335;51.486;7.562;2023-11-19T10:46:37;29.33;;;4.75;;
31760;SDS011;18335;51.486;7.562;2023-11-19T10:49:05;29.23;;;5.30;;
31760;SDS011;18335;51.486;7.562;2023-11-19T10:51:32;22.83;;;5.35;;
31760;SDS011;18335;51.486;7.562;2023-11-19T10:54:01;30.50;;;4.30;;
31760;SDS011;18335;51.486;7.562;2023-11-19T10:56:31;17.98;;;4.70;;
31760;SDS011;18335;51.486;7.562;2023-11-19T10:58:58;32.72;;;4.80;;
31760;SDS011;18335;51.486;7.562;2023-11-19T11:01:26;28.08;;;6.65;;
31760;SDS011;18335;51.486;7.562;2023-11-19T11:04:00;27.45;;;4.10;;
31760;SDS011;18335;51.486;7.562;2023-11-19T11:06:29;26.10;;;4.18;;
31760;SDS011;18335;51.486;7.562;2023-11-19T11:08:56;26.33;;;5.45;;
31760;SDS011;18335;51.486;7.562;2023-11-19T11:11:24;20.13;;;3.97;;
31760;SDS011;18335;51.486;7.562;2023-11-19T11:13:52;24.35;;;4.65;;
31760;SDS011;18335;51.486;7.562;2023-11-19T11:16:21;28.00;;;5.80;;
31760;SDS011;18335;51.486;7.562;2023-11-19T11:18:50;29.42;;;5.95;;
31760;SDS011;18335;51.486;7.562;2023-11-19T11:21:21;25.73;;;4.90;;
31760;SDS011;18335;51.486;7.562;2023-11-19T11:26:59;24.25;;;4.32;;
31760;SDS011;18335;51.486;7.562;2023-11-19T11:29:46;22.90;;;5.03;;
31760;SDS011;18335;51.486;7.562;2023-11-19T11:32:21;26.38;;;4.20;;
31760;SDS011;18335;51.486;7.562;2023-11-19T11:37:53;27.75;;;5.90;;
31760;SDS011;18335;51.486;7.562;2023-11-19T11:40:27;27.23;;;7.55;;
31760;SDS011;18335;51.486;7.562;2023-11-19T11:42:53;22.90;;;4.82;;
31760;SDS011;18335;51.486;7.562;2023-11-19T11:45:30;28.92;;;5.40;;
31760;SDS011;18335;51.486;7.562;2023-11-19T11:53:18;21.55;;;4.50;;
31760;SDS011;18335;51.486;7.562;2023-11-19T11:55:57;19.17;;;5.25;;
31760;SDS011;18335;51.486;7.562;2023-11-19T11:58:27;21.98;;;5.40;;
31760;SDS011;18335;51.486;7.562;2023-11-19T12:00:58;28.58;;;6.03;;
31760;SDS011;18335;51.486;7.562;2023-11-19T12:03:28;25.88;;;5.43;;
31760;SDS011;18335;51.486;7.562;2023-11-19T12:05:57;23.63;;;3.63;;
31760;SDS011;18335;51.486;7.562;2023-11-19T12:08:27;26.70;;;6.18;;
31760;SDS011;18335;51.486;7.562;2023-11-19T12:10:56;18.52;;;3.75;;
31760;SDS011;18335;51.486;7.562;2023-11-19T12:13:47;23.55;;;4.63;;
31760;SDS011;18335;51.486;7.562;2023-11-19T12:16:19;15.23;;;2.85;;
31760;SDS011;18335;51.486;7.562;2023-11-19T12:18:47;23.27;;;3.90;;
31760;SDS011;18335;51.486;7.562;2023-11-19T12:21:27;34.30;;;4.05;;
31760;SDS011;18335;51.486;7.562;2023-11-19T12:23:56;19.17;;;3.83;;
31760;SDS011;18335;51.486;7.562;2023-11-19T12:26:35;22.98;;;5.57;;
31760;SDS011;18335;51.486;7.562;2023-11-19T12:29:04;16.98;;;4.07;;
31760;SDS011;18335;51.486;7.562;2023-11-19T12:31:31;22.10;;;4.30;;
31760;SDS011;18335;51.486;7.562;2023-11-19T12:34:05;25.42;;;3.97;;
31760;SDS011;18335;51.486;7.562;2023-11-19T12:36:32;19.65;;;3.58;;
31760;SDS011;18335;51.486;7.562;2023-11-19T12:39:00;20.35;;;3.63;;
31760;SDS011;18335;51.486;7.562;2023-11-19T12:41:28;19.60;;;3.97;;
31760;SDS011;18335;51.486;7.562;2023-11-19T12:44:08;25.92;;;5.55;;
31760;SDS011;18335;51.486;7.562;2023-11-19T12:46:35;21.00;;;4.20;;
31760;SDS011;18335;51.486;7.562;2023-11-19T12:49:02;21.42;;;4.25;;
31760;SDS011;18335;51.486;7.562;2023-11-19T12:51:31;25.50;;;4.57;;
31760;SDS011;18335;51.486;7.562;2023-11-19T12:54:00;26.90;;;3.78;;
31760;SDS011;18335;51.486;7.562;2023-11-19T12:56:26;21.33;;;5.10;;
31760;SDS011;18335;51.486;7.562;2023-11-19T12:58:55;20.13;;;4.47;;
31760;SDS011;18335;51.486;7.562;2023-11-19T13:01:21;22.08;;;4.50;;
31760;SDS011;18335;51.486;7.562;2023-11-19T13:03:48;19.85;;;3.85;;
31760;SDS011;18335;51.486;7.562;2023-11-19T13:06:16;24.27;;;4.53;;
31760;SDS011;18335;51.486;7.562;2023-11-19T13:08:47;19.10;;;3.13;;
31760;SDS011;18335;51.486;7.562;2023-11-19T13:11:31;24.00;;;4.45;;
31760;SDS011;18335;51.486;7.562;2023-11-19T13:13:59;18.10;;;3.55;;
31760;SDS011;18335;51.486;7.562;2023-11-19T13:16:29;24.38;;;5.30;;
31760;SDS011;18335;51.486;7.562;2023-11-19T13:18:56;21.73;;;3.40;;
31760;SDS011;18335;51.486;7.562;2023-11-19T13:21:25;18.52;;;4.13;;
31760;SDS011;18335;51.486;7.562;2023-11-19T13:23:52;16.58;;;3.20;;
31760;SDS011;18335;51.486;7.562;2023-11-19T13:26:18;18.33;;;3.83;;
31760;SDS011;18335;51.486;7.562;2023-11-19T13:28:46;19.48;;;4.07;;
31760;SDS011;18335;51.486;7.562;2023-11-19T13:31:13;17.58;;;4.47;;
31760;SDS011;18335;51.486;7.562;2023-11-19T13:33:40;21.20;;;3.50;;
31760;SDS011;18335;51.486;7.562;2023-11-19T13:36:07;20.48;;;3.75;;
31760;SDS011;18335;51.486;7.562;2023-11-19T13:38:35;18.80;;;3.08;;
31760;SDS011;18335;51.486;7.562;2023-11-19T13:41:02;16.70;;;4.28;;
31760;SDS011;18335;51.486;7.562;2023-11-19T13:43:30;18.38;;;3.03;;
31760;SDS011;18335;51.486;7.562;2023-11-19T13:45:58;12.00;;;3.33;;
31760;SDS011;18335;51.486;7.562;2023-11-19T13:48:25;17.10;;;3.30;;
31760;SDS011;18335;51.486;7.562;2023-11-19T13:50:54;14.88;;;2.72;;
31760;SDS011;18335;51.486;7.562;2023-11-19T13:53:21;16.95;;;2.75;;
31760;SDS011;18335;51.486;7.562;2023-11-19T13:55:49;22.30;;;4.38;;
31760;SDS011;18335;51.486;7.562;2023-11-19T13:58:16;21.27;;;3.88;;
31760;SDS011;18335;51.486;7.562;2023-11-19T14:00:43;16.25;;;2.53;;
31760;SDS011;18335;51.486;7.562;2023-11-19T14:03:11;15.43;;;2.60;;
31760;SDS011;18335;51.486;7.562;2023-11-19T14:05:37;17.10;;;4.22;;
31760;SDS011;18335;51.486;7.562;2023-11-19T14:08:06;15.35;;;3.13;;
31760;SDS011;18335;51.486;7.562;2023-11-19T14:10:36;16.80;;;2.90;;
31760;SDS011;18335;51.486;7.562;2023-11-19T14:13:05;14.00;;;2.97;;
31760;SDS011;18335;51.486;7.562;2023-11-19T14:15:33;17.50;;;3.50;;
31760;SDS011;18335;51.486;7.562;2023-11-19T14:18:00;22.00;;;3.50;;
31760;SDS011;18335;51.486;7.562;2023-11-19T14:20:29;23.45;;;3.83;;
31760;SDS011;18335;51.486;7.562;2023-11-19T14:22:56;22.48;;;4.80;;
31760;SDS011;18335;51.486;7.562;2023-11-19T14:25:23;14.48;;;3.60;;
31760;SDS011;18335;51.486;7.562;2023-11-19T14:27:50;17.80;;;3.72;;
31760;SDS011;18335;51.486;7.562;2023-11-19T14:30:17;19.60;;;3.67;;
31760;SDS011;18335;51.486;7.562;2023-11-19T14:32:44;19.50;;;4.28;;
31760;SDS011;18335;51.486;7.562;2023-11-19T14:35:11;14.35;;;4.22;;
31760;SDS011;18335;51.486;7.562;2023-11-19T14:37:39;13.63;;;3.25;;
31760;SDS011;18335;51.486;7.562;2023-11-19T14:40:06;14.82;;;2.53;;
31760;SDS011;18335;51.486;7.562;2023-11-19T14:42:36;21.00;;;3.42;;
31760;SDS011;18335;51.486;7.562;2023-11-19T14:45:04;19.67;;;4.03;;
31760;SDS011;18335;51.486;7.562;2023-11-19T14:47:32;19.60;;;4.22;;
31760;SDS011;18335;51.486;7.562;2023-11-19T14:49:59;18.33;;;3.17;;
31760;SDS011;18335;51.486;7.562;2023-11-19T14:52:26;18.95;;;3.78;;
31760;SDS011;18335;51.486;7.562;2023-11-19T14:54:54;23.83;;;3.60;;